Saint Ignace, MI

5:04 AM EDT on May 29, 2015 (GMT -0400)
MesoWest | | Change Station
CLOSE
Current Station
Personal Weather Station
Location: Saint Ignace, MI
Elevation: 603 ft
Nearby Weather Stations

Elev 603 ft 45.90 °N, 84.74 °W | Updated 29 minutes ago

Clear
Clear
50 °F
Feels Like 50 °F
N
3
Wind Variable Wind from ENE
Gusts 6.0 mph

Today
High -- | Low -- °F
--% Chance of Precip.
Yesterday
High -- | Low -- °F
Precip. -- in
5:54 AM 9:18 PM
Waxing Gibbous, 82% visible
Pressure 30.09 in
Visibility 10.0 miles
Clouds Clear
Dew Point 50 °F
Humidity 99%
Rainfall in
Snow Depth Not available.
UV 0 out of 12
Pollen 8.90 out of 12
Air Quality Not available.
Flu Activity Sporadic
METAR KMCD 290854Z AUTO 14009KT 10SM CLR 13/12 A3009 RMK AO2 T01260124

More Conditions Fewer Conditions

Pressure 30.09 in
Visibility 10.0 miles
Clouds Clear
Dew Point 50 °F
Humidity 99%
Rainfall in
Snow Depth Not available.
UV 0 out of 12
Pollen 8.90 out of 12
Air Quality Not available.
Flu Activity Sporadic
METAR KMCD 290854Z AUTO 14009KT 10SM CLR 13/12 A3009 RMK AO2 T01260124

More Conditions Fewer Conditions

Nowcast | as of 5:00 am EDT on May 29, 2015

At 6 am...partly cloudy. Patchy fog. Temperature 50. East winds 8 mph. At 8 am...partly cloudy. Temperature 51. East winds 8 mph. At 10 am...partly cloudy. Temperature 58. Southeast winds 8 mph. At 12 PM...mostly cloudy. Temperature 64. Southeast winds 7 mph.

×

10-Day Weather Forecast

Almanac

Astronomy

May. 29, 2015 Rise Set
Actual Time
Civil Twilight
Nautical Twilight
Astronomical Twilight
Moon
Length of Visible Light
Length of Day
Tomorrow will be .
, % of the Moon is Illuminated

Today's Extremes

State Highs State Lows

Community

WunderPhotos

Upload Photos

1,825,221 photos uploaded!

WunderBlogs® & News

Nearby

Air Quality

  Air Quality AQ Index Pollutant
Not available.

Snow Depth

Station Depth Elevation

Earthquake Activity

City Distance Mag. Time & Date
Minimum magnitude displayed is 2.5.

Coastal Water Temperatures

Place Temperature

Stations

Nearby Weather Stations

Station Location Temp. Windchill Dew Point Humidity Wind Precip. Elev Updated Type